الصفحة الرئيسية
METAR-TAF:

METAR-TAF

مطار :

Narrandera, أستراليا

دائرة عرض: 34-42-08S, خط طول: 146-30-44E, ارتفاع: 144 متر

مراقبة الطقس الحالي

تاريخ ووقت الإصدار 53 دقيقة قبل الساعة 10:00UTC
ريح 8 عقدة من الجنوب الغربي
درجة الحرارة 27°درجة مئوية
الرطوبة 16%
ضغط 1012 hPa
الرؤية 10 كم أو أكثر

METAR: YNAR 111000Z AUTO 22008KT 9999 // NCD 27/M01 Q1012

زمن: 21:53 (10:53 UTC)


TAF: مفقودة

أرصاد الطقس والتوقعات من أكثر من 4000 مطار (تقارير الطقس للمطار METAR والتنبؤ بالطقس بالمطارTAF).

المحطات المتاحة هي النقط الصفراء والحمراء على الخريطة.

حرك المؤشر فوق النقطة لمعرفة اسم المحطة.

ثم انقر لمعرفة أرصاد وتوقعات الطقس.

لتغيير الخارطة: اضغط على الأزرار الخضراء مع رمز الصليب الأسود للتكبير. على الزر الأخضر مع شرطة للتصغير، أو على الأسهم الخضراء للخرائط المجاورة.


METAR-TAF: